sensor_id;sensor_type;location;lat;lon;timestamp;pressure;altitude;pressure_sealevel;temperature;humidity
60170;BME280;46042;49.444;6.862;2022-10-22T00:01:40;98252.28;;;13.12;100.00
60170;BME280;46042;49.444;6.862;2022-10-22T00:04:06;98255.91;;;13.11;100.00
60170;BME280;46042;49.444;6.862;2022-10-22T00:06:34;98249.06;;;13.08;100.00
60170;BME280;46042;49.444;6.862;2022-10-22T00:09:00;98260.16;;;13.02;100.00
60170;BME280;46042;49.444;6.862;2022-10-22T00:11:27;98259.31;;;13.02;100.00
60170;BME280;46042;49.444;6.862;2022-10-22T00:13:54;98268.09;;;13.02;100.00
60170;BME280;46042;49.444;6.862;2022-10-22T00:16:21;98274.34;;;13.01;100.00
60170;BME280;46042;49.444;6.862;2022-10-22T00:18:47;98277.56;;;13.05;100.00
60170;BME280;46042;49.444;6.862;2022-10-22T00:21:14;98279.50;;;13.03;100.00
60170;BME280;46042;49.444;6.862;2022-10-22T00:23:42;98281.31;;;13.02;100.00
60170;BME280;46042;49.444;6.862;2022-10-22T00:26:10;98275.19;;;13.02;100.00
60170;BME280;46042;49.444;6.862;2022-10-22T00:28:37;98277.94;;;13.00;100.00
60170;BME280;46042;49.444;6.862;2022-10-22T00:31:05;98282.28;;;13.01;100.00
60170;BME280;46042;49.444;6.862;2022-10-22T00:33:32;98279.75;;;13.00;100.00
60170;BME280;46042;49.444;6.862;2022-10-22T00:35:59;98282.53;;;12.98;100.00
60170;BME280;46042;49.444;6.862;2022-10-22T00:38:25;98284.91;;;13.01;100.00
60170;BME280;46042;49.444;6.862;2022-10-22T00:40:52;98286.97;;;12.98;100.00
60170;BME280;46042;49.444;6.862;2022-10-22T00:43:19;98300.31;;;12.96;100.00
60170;BME280;46042;49.444;6.862;2022-10-22T00:45:46;98291.44;;;12.97;100.00
60170;BME280;46042;49.444;6.862;2022-10-22T00:48:22;98296.00;;;12.95;100.00
60170;BME280;46042;49.444;6.862;2022-10-22T00:50:53;98292.66;;;12.93;100.00
60170;BME280;46042;49.444;6.862;2022-10-22T00:53:25;98293.47;;;12.93;100.00
60170;BME280;46042;49.444;6.862;2022-10-22T00:55:54;98285.44;;;12.95;100.00
60170;BME280;46042;49.444;6.862;2022-10-22T00:58:24;98293.47;;;12.93;100.00
60170;BME280;46042;49.444;6.862;2022-10-22T01:00:51;98292.66;;;12.93;100.00
60170;BME280;46042;49.444;6.862;2022-10-22T01:03:18;98299.47;;;12.95;100.00
60170;BME280;46042;49.444;6.862;2022-10-22T01:05:53;98297.09;;;12.92;100.00
60170;BME280;46042;49.444;6.862;2022-10-22T01:13:57;98302.81;;;12.98;100.00
60170;BME280;46042;49.444;6.862;2022-10-22T01:16:47;98294.06;;;12.97;100.00
60170;BME280;46042;49.444;6.862;2022-10-22T01:22:18;98309.78;;;12.99;100.00
60170;BME280;46042;49.444;6.862;2022-10-22T01:30:02;98308.81;;;13.00;100.00
60170;BME280;46042;49.444;6.862;2022-10-22T01:32:34;98311.59;;;12.98;100.00
60170;BME280;46042;49.444;6.862;2022-10-22T01:35:05;98303.94;;;12.95;100.00
60170;BME280;46042;49.444;6.862;2022-10-22T01:37:39;98309.94;;;12.97;100.00
60170;BME280;46042;49.444;6.862;2022-10-22T01:40:09;98310.41;;;12.91;100.00
60170;BME280;46042;49.444;6.862;2022-10-22T01:42:37;98317.25;;;12.93;100.00
60170;BME280;46042;49.444;6.862;2022-10-22T01:45:11;98306.44;;;12.97;100.00
60170;BME280;46042;49.444;6.862;2022-10-22T01:50:52;98308.97;;;12.98;100.00
60170;BME280;46042;49.444;6.862;2022-10-22T01:53:36;98302.81;;;12.98;100.00
60170;BME280;46042;49.444;6.862;2022-10-22T01:59:11;98274.72;;;12.97;100.00
60170;BME280;46042;49.444;6.862;2022-10-22T02:01:48;98289.25;;;12.91;100.00
60170;BME280;46042;49.444;6.862;2022-10-22T02:04:31;98305.13;;;12.91;100.00
60170;BME280;46042;49.444;6.862;2022-10-22T02:07:02;98315.25;;;12.86;100.00
60170;BME280;46042;49.444;6.862;2022-10-22T02:09:30;98310.09;;;12.84;100.00
60170;BME280;46042;49.444;6.862;2022-10-22T02:12:01;98321.59;;;12.83;100.00
60170;BME280;46042;49.444;6.862;2022-10-22T02:14:29;98311.19;;;12.82;100.00
60170;BME280;46042;49.444;6.862;2022-10-22T02:16:57;98308.78;;;12.78;100.00
60170;BME280;46042;49.444;6.862;2022-10-22T02:20:03;98319.59;;;12.75;100.00
60170;BME280;46042;49.444;6.862;2022-10-22T02:22:31;98319.13;;;12.70;100.00
60170;BME280;46042;49.444;6.862;2022-10-22T02:24:58;98315.28;;;12.63;100.00
60170;BME280;46042;49.444;6.862;2022-10-22T02:27:42;98318.19;;;12.60;100.00
60170;BME280;46042;49.444;6.862;2022-10-22T02:30:14;98313.38;;;12.54;100.00
60170;BME280;46042;49.444;6.862;2022-10-22T02:33:07;98316.25;;;12.50;100.00
60170;BME280;46042;49.444;6.862;2022-10-22T02:35:37;98310.38;;;12.47;100.00
60170;BME280;46042;49.444;6.862;2022-10-22T02:38:06;98319.25;;;12.46;100.00
60170;BME280;46042;49.444;6.862;2022-10-22T02:40:33;98325.75;;;12.42;100.00
60170;BME280;46042;49.444;6.862;2022-10-22T02:43:03;98320.81;;;12.37;100.00
60170;BME280;46042;49.444;6.862;2022-10-22T02:45:30;98321.94;;;12.34;100.00
60170;BME280;46042;49.444;6.862;2022-10-22T02:47:57;98336.19;;;12.32;100.00
60170;BME280;46042;49.444;6.862;2022-10-22T02:50:24;98341.72;;;12.29;100.00
60170;BME280;46042;49.444;6.862;2022-10-22T02:52:50;98331.53;;;12.24;100.00
60170;BME280;46042;49.444;6.862;2022-10-22T02:55:17;98336.31;;;12.19;100.00
60170;BME280;46042;49.444;6.862;2022-10-22T02:57:44;98343.53;;;12.17;100.00
60170;BME280;46042;49.444;6.862;2022-10-22T03:00:11;98352.53;;;12.14;100.00
60170;BME280;46042;49.444;6.862;2022-10-22T03:02:38;98350.13;;;12.11;100.00
60170;BME280;46042;49.444;6.862;2022-10-22T03:05:05;98352.16;;;12.07;100.00
60170;BME280;46042;49.444;6.862;2022-10-22T03:07:32;98355.66;;;12.08;100.00
60170;BME280;46042;49.444;6.862;2022-10-22T03:09:59;98350.72;;;12.03;100.00
60170;BME280;46042;49.444;6.862;2022-10-22T03:12:26;98359.03;;;11.97;100.00
60170;BME280;46042;49.444;6.862;2022-10-22T03:14:52;98368.88;;;11.95;100.00
60170;BME280;46042;49.444;6.862;2022-10-22T03:17:19;98369.25;;;11.90;100.00
60170;BME280;46042;49.444;6.862;2022-10-22T03:19:46;98372.47;;;11.83;100.00
60170;BME280;46042;49.444;6.862;2022-10-22T03:22:16;98373.88;;;11.75;100.00
60170;BME280;46042;49.444;6.862;2022-10-22T03:24:47;98382.03;;;11.72;100.00
60170;BME280;46042;49.444;6.862;2022-10-22T03:27:16;98392.91;;;11.67;100.00
60170;BME280;46042;49.444;6.862;2022-10-22T03:29:43;98392.44;;;11.62;100.00
60170;BME280;46042;49.444;6.862;2022-10-22T03:32:12;98390.13;;;11.58;100.00
60170;BME280;46042;49.444;6.862;2022-10-22T03:34:39;98394.91;;;11.52;100.00
60170;BME280;46042;49.444;6.862;2022-10-22T03:37:05;98390.94;;;11.47;100.00
60170;BME280;46042;49.444;6.862;2022-10-22T03:39:33;98399.91;;;11.44;100.00
60170;BME280;46042;49.444;6.862;2022-10-22T03:42:01;98406.25;;;11.42;100.00
60170;BME280;46042;49.444;6.862;2022-10-22T03:44:29;98407.31;;;11.39;100.00
60170;BME280;46042;49.444;6.862;2022-10-22T03:46:56;98419.53;;;11.40;100.00
60170;BME280;46042;49.444;6.862;2022-10-22T03:49:27;98420.41;;;11.41;100.00
60170;BME280;46042;49.444;6.862;2022-10-22T03:51:54;98422.19;;;11.40;100.00
60170;BME280;46042;49.444;6.862;2022-10-22T03:54:21;98422.31;;;11.38;100.00
60170;BME280;46042;49.444;6.862;2022-10-22T03:56:47;98425.88;;;11.37;100.00
60170;BME280;46042;49.444;6.862;2022-10-22T03:59:14;98414.59;;;11.35;100.00
60170;BME280;46042;49.444;6.862;2022-10-22T04:01:41;98416.75;;;11.30;100.00
60170;BME280;46042;49.444;6.862;2022-10-22T04:04:08;98419.47;;;11.29;100.00
60170;BME280;46042;49.444;6.862;2022-10-22T04:06:34;98413.38;;;11.28;100.00
60170;BME280;46042;49.444;6.862;2022-10-22T04:09:01;98412.41;;;11.29;100.00
60170;BME280;46042;49.444;6.862;2022-10-22T04:11:28;98411.69;;;11.27;100.00
60170;BME280;46042;49.444;6.862;2022-10-22T04:13:55;98418.03;;;11.24;100.00
60170;BME280;46042;49.444;6.862;2022-10-22T04:16:22;98408.44;;;11.23;100.00
60170;BME280;46042;49.444;6.862;2022-10-22T04:18:52;98423.44;;;11.23;100.00
60170;BME280;46042;49.444;6.862;2022-10-22T04:21:19;98421.84;;;11.20;100.00
60170;BME280;46042;49.444;6.862;2022-10-22T04:23:48;98423.13;;;11.15;100.00
60170;BME280;46042;49.444;6.862;2022-10-22T04:26:16;98425.75;;;11.15;100.00
60170;BME280;46042;49.444;6.862;2022-10-22T04:28:44;98431.25;;;11.12;100.00
60170;BME280;46042;49.444;6.862;2022-10-22T04:31:13;98419.97;;;11.09;100.00
60170;BME280;46042;49.444;6.862;2022-10-22T04:33:41;98418.41;;;11.07;100.00
60170;BME280;46042;49.444;6.862;2022-10-22T04:36:13;98419.47;;;11.04;100.00
60170;BME280;46042;49.444;6.862;2022-10-22T04:38:42;98429.25;;;11.02;100.00
60170;BME280;46042;49.444;6.862;2022-10-22T04:41:15;98432.03;;;11.01;100.00
60170;BME280;46042;49.444;6.862;2022-10-22T04:43:43;98431.50;;;10.95;100.00
60170;BME280;46042;49.444;6.862;2022-10-22T04:46:11;98444.88;;;10.92;100.00
60170;BME280;46042;49.444;6.862;2022-10-22T04:48:40;98443.22;;;10.91;100.00
60170;BME280;46042;49.444;6.862;2022-10-22T04:51:10;98443.22;;;10.91;100.00
60170;BME280;46042;49.444;6.862;2022-10-22T04:53:37;98448.38;;;10.93;100.00
60170;BME280;46042;49.444;6.862;2022-10-22T04:58:37;98439.97;;;10.88;100.00
60170;BME280;46042;49.444;6.862;2022-10-22T05:01:09;98449.66;;;10.87;100.00
60170;BME280;46042;49.444;6.862;2022-10-22T05:03:36;98450.50;;;10.88;100.00
60170;BME280;46042;49.444;6.862;2022-10-22T05:06:03;98452.28;;;10.87;100.00
60170;BME280;46042;49.444;6.862;2022-10-22T05:08:30;98449.88;;;10.84;100.00
60170;BME280;46042;49.444;6.862;2022-10-22T05:10:56;98451.78;;;10.82;100.00
60170;BME280;46042;49.444;6.862;2022-10-22T05:13:23;98453.78;;;10.78;100.00
60170;BME280;46042;49.444;6.862;2022-10-22T05:15:50;98458.19;;;10.78;100.00
60170;BME280;46042;49.444;6.862;2022-10-22T05:18:17;98456.00;;;10.72;100.00
60170;BME280;46042;49.444;6.862;2022-10-22T05:20:47;98460.75;;;10.66;100.00
60170;BME280;46042;49.444;6.862;2022-10-22T05:23:14;98459.28;;;10.62;100.00
60170;BME280;46042;49.444;6.862;2022-10-22T05:25:41;98453.69;;;10.54;100.00
60170;BME280;46042;49.444;6.862;2022-10-22T05:28:07;98455.59;;;10.52;100.00
60170;BME280;46042;49.444;6.862;2022-10-22T05:30:34;98456.84;;;10.46;100.00
60170;BME280;46042;49.444;6.862;2022-10-22T05:33:00;98465.06;;;10.42;100.00
60170;BME280;46042;49.444;6.862;2022-10-22T05:35:27;98463.56;;;10.37;100.00
60170;BME280;46042;49.444;6.862;2022-10-22T05:37:54;98465.88;;;10.29;100.00
60170;BME280;46042;49.444;6.862;2022-10-22T05:40:25;98465.44;;;10.22;100.00
60170;BME280;46042;49.444;6.862;2022-10-22T05:42:57;98477.97;;;10.19;100.00
60170;BME280;46042;49.444;6.862;2022-10-22T05:45:24;98486.81;;;10.18;100.00
60170;BME280;46042;49.444;6.862;2022-10-22T05:47:50;98487.00;;;10.15;100.00
60170;BME280;46042;49.444;6.862;2022-10-22T05:50:17;98493.22;;;10.14;100.00
60170;BME280;46042;49.444;6.862;2022-10-22T05:52:44;98489.84;;;10.12;100.00
60170;BME280;46042;49.444;6.862;2022-10-22T05:55:11;98502.25;;;10.09;100.00
60170;BME280;46042;49.444;6.862;2022-10-22T05:57:38;98495.50;;;10.05;100.00
60170;BME280;46042;49.444;6.862;2022-10-22T06:00:06;98503.41;;;10.05;100.00
60170;BME280;46042;49.444;6.862;2022-10-22T06:02:38;98490.53;;;10.01;100.00
60170;BME280;46042;49.444;6.862;2022-10-22T06:05:05;98489.91;;;9.97;100.00
60170;BME280;46042;49.444;6.862;2022-10-22T06:07:32;98490.13;;;9.94;100.00
60170;BME280;46042;49.444;6.862;2022-10-22T06:09:59;98499.72;;;9.95;100.00
60170;BME280;46042;49.444;6.862;2022-10-22T06:12:26;98489.34;;;9.92;100.00
60170;BME280;46042;49.444;6.862;2022-10-22T06:14:53;98500.94;;;9.89;100.00
60170;BME280;46042;49.444;6.862;2022-10-22T06:17:20;98494.22;;;9.85;100.00
60170;BME280;46042;49.444;6.862;2022-10-22T06:19:46;98499.56;;;9.84;100.00
60170;BME280;46042;49.444;6.862;2022-10-22T06:22:13;98497.97;;;9.81;100.00
60170;BME280;46042;49.444;6.862;2022-10-22T06:24:40;98499.19;;;9.75;100.00
60170;BME280;46042;49.444;6.862;2022-10-22T06:27:10;98507.22;;;9.74;100.00
60170;BME280;46042;49.444;6.862;2022-10-22T06:29:37;98515.09;;;9.74;100.00
60170;BME280;46042;49.444;6.862;2022-10-22T06:32:03;98520.34;;;9.74;100.00
60170;BME280;46042;49.444;6.862;2022-10-22T06:34:30;98523.19;;;9.71;100.00
60170;BME280;46042;49.444;6.862;2022-10-22T06:36:57;98531.81;;;9.73;100.00
60170;BME280;46042;49.444;6.862;2022-10-22T06:39:24;98541.50;;;9.72;100.00
60170;BME280;46042;49.444;6.862;2022-10-22T06:41:50;98538.13;;;9.70;100.00
60170;BME280;46042;49.444;6.862;2022-10-22T06:44:18;98546.13;;;9.68;100.00
60170;BME280;46042;49.444;6.862;2022-10-22T06:46:48;98551.38;;;9.68;100.00
60170;BME280;46042;49.444;6.862;2022-10-22T06:49:15;98556.81;;;9.65;100.00
60170;BME280;46042;49.444;6.862;2022-10-22T06:51:43;98555.25;;;9.63;100.00
60170;BME280;46042;49.444;6.862;2022-10-22T06:54:10;98565.03;;;9.61;100.00
60170;BME280;46042;49.444;6.862;2022-10-22T06:56:37;98576.28;;;9.63;100.00
60170;BME280;46042;49.444;6.862;2022-10-22T06:59:04;98587.53;;;9.65;100.00
60170;BME280;46042;49.444;6.862;2022-10-22T07:01:32;98592.81;;;9.65;100.00
60170;BME280;46042;49.444;6.862;2022-10-22T07:04:00;98602.38;;;9.66;100.00
60170;BME280;46042;49.444;6.862;2022-10-22T07:06:27;98604.81;;;9.69;100.00
60170;BME280;46042;49.444;6.862;2022-10-22T07:08:56;98603.88;;;9.70;100.00
60170;BME280;46042;49.444;6.862;2022-10-22T07:11:46;98607.06;;;9.75;100.00
60170;BME280;46042;49.444;6.862;2022-10-22T07:14:13;98607.06;;;9.75;100.00
60170;BME280;46042;49.444;6.862;2022-10-22T07:16:39;98602.34;;;9.80;100.00
60170;BME280;46042;49.444;6.862;2022-10-22T07:19:11;98608.91;;;9.88;100.00
60170;BME280;46042;49.444;6.862;2022-10-22T07:21:39;98608.34;;;9.97;100.00
60170;BME280;46042;49.444;6.862;2022-10-22T07:24:06;98606.59;;;10.10;100.00
60170;BME280;46042;49.444;6.862;2022-10-22T07:26:33;98618.97;;;10.23;100.00
60170;BME280;46042;49.444;6.862;2022-10-22T07:29:00;98618.16;;;10.35;100.00
60170;BME280;46042;49.444;6.862;2022-10-22T07:31:27;98617.41;;;10.48;100.00
60170;BME280;46042;49.444;6.862;2022-10-22T07:33:53;98626.06;;;10.63;100.00
60170;BME280;46042;49.444;6.862;2022-10-22T07:36:20;98627.75;;;10.77;100.00
60170;BME280;46042;49.444;6.862;2022-10-22T07:38:52;98629.06;;;10.97;100.00
60170;BME280;46042;49.444;6.862;2022-10-22T07:41:19;98629.09;;;11.23;100.00
60170;BME280;46042;49.444;6.862;2022-10-22T07:43:46;98629.06;;;11.36;100.00
60170;BME280;46042;49.444;6.862;2022-10-22T07:46:12;98634.44;;;11.60;100.00
60170;BME280;46042;49.444;6.862;2022-10-22T07:48:39;98638.94;;;11.71;100.00
60170;BME280;46042;49.444;6.862;2022-10-22T07:51:07;98635.88;;;11.77;100.00
60170;BME280;46042;49.444;6.862;2022-10-22T07:53:33;98633.63;;;11.84;100.00
60170;BME280;46042;49.444;6.862;2022-10-22T07:56:00;98629.44;;;11.81;100.00
60170;BME280;46042;49.444;6.862;2022-10-22T07:58:27;98631.00;;;11.84;100.00
60170;BME280;46042;49.444;6.862;2022-10-22T08:00:55;98632.59;;;11.87;100.00
60170;BME280;46042;49.444;6.862;2022-10-22T08:03:22;98640.19;;;11.91;100.00
60170;BME280;46042;49.444;6.862;2022-10-22T08:05:50;98641.88;;;11.92;100.00
60170;BME280;46042;49.444;6.862;2022-10-22T08:08:17;98643.88;;;11.89;100.00
60170;BME280;46042;49.444;6.862;2022-10-22T08:10:45;98658.22;;;11.98;100.00
60170;BME280;46042;49.444;6.862;2022-10-22T08:13:13;98651.69;;;12.03;100.00
60170;BME280;46042;49.444;6.862;2022-10-22T08:15:41;98645.63;;;12.14;100.00
60170;BME280;46042;49.444;6.862;2022-10-22T08:18:13;98654.78;;;12.21;100.00
60170;BME280;46042;49.444;6.862;2022-10-22T08:20:40;98653.09;;;12.20;100.00
60170;BME280;46042;49.444;6.862;2022-10-22T08:23:08;98664.28;;;12.24;100.00
60170;BME280;46042;49.444;6.862;2022-10-22T08:25:34;98662.50;;;12.25;100.00
60170;BME280;46042;49.444;6.862;2022-10-22T08:28:01;98682.66;;;12.26;100.00
60170;BME280;46042;49.444;6.862;2022-10-22T08:30:28;98683.03;;;12.32;100.00
60170;BME280;46042;49.444;6.862;2022-10-22T08:32:55;98680.19;;;12.35;100.00
60170;BME280;46042;49.444;6.862;2022-10-22T08:35:22;98679.00;;;12.40;100.00
60170;BME280;46042;49.444;6.862;2022-10-22T08:37:49;98687.56;;;12.43;100.00
60170;BME280;46042;49.444;6.862;2022-10-22T08:40:24;98689.03;;;12.47;100.00
60170;BME280;46042;49.444;6.862;2022-10-22T08:45:36;98700.25;;;12.62;100.00
60170;BME280;46042;49.444;6.862;2022-10-22T08:50:51;98700.53;;;12.71;100.00
60170;BME280;46042;49.444;6.862;2022-10-22T08:53:22;98708.34;;;12.72;100.00
60170;BME280;46042;49.444;6.862;2022-10-22T08:55:52;98713.19;;;12.78;100.00
60170;BME280;46042;49.444;6.862;2022-10-22T08:58:42;98718.31;;;12.93;100.00
60170;BME280;46042;49.444;6.862;2022-10-22T09:01:38;98724.25;;;13.08;100.00
60170;BME280;46042;49.444;6.862;2022-10-22T09:04:27;98723.41;;;13.19;100.00
60170;BME280;46042;49.444;6.862;2022-10-22T09:06:57;98720.44;;;13.23;100.00
60170;BME280;46042;49.444;6.862;2022-10-22T09:09:28;98717.44;;;13.40;100.00
60170;BME280;46042;49.444;6.862;2022-10-22T09:11:58;98726.28;;;13.51;100.00
60170;BME280;46042;49.444;6.862;2022-10-22T09:14:26;98731.72;;;13.50;100.00
60170;BME280;46042;49.444;6.862;2022-10-22T09:20:02;98726.06;;;14.00;100.00
60170;BME280;46042;49.444;6.862;2022-10-22T09:22:43;98714.50;;;14.24;100.00
60170;BME280;46042;49.444;6.862;2022-10-22T09:25:26;98716.28;;;14.23;100.00
60170;BME280;46042;49.444;6.862;2022-10-22T09:27:53;98721.34;;;14.27;100.00
60170;BME280;46042;49.444;6.862;2022-10-22T09:30:29;98726.69;;;14.15;100.00
60170;BME280;46042;49.444;6.862;2022-10-22T09:33:06;98725.09;;;14.13;100.00
60170;BME280;46042;49.444;6.862;2022-10-22T09:35:49;98722.22;;;14.16;100.00
60170;BME280;46042;49.444;6.862;2022-10-22T09:38:19;98733.31;;;14.10;100.00
60170;BME280;46042;49.444;6.862;2022-10-22T09:40:49;98734.63;;;14.04;100.00
60170;BME280;46042;49.444;6.862;2022-10-22T09:43:16;98729.53;;;14.12;100.00
60170;BME280;46042;49.444;6.862;2022-10-22T09:45:44;98724.13;;;14.14;100.00
60170;BME280;46042;49.444;6.862;2022-10-22T09:48:21;98743.88;;;13.98;100.00
60170;BME280;46042;49.444;6.862;2022-10-22T09:51:22;98738.00;;;14.06;100.00
60170;BME280;46042;49.444;6.862;2022-10-22T09:53:58;98738.47;;;14.11;100.00
60170;BME280;46042;49.444;6.862;2022-10-22T09:59:28;98736.41;;;14.15;100.00
60170;BME280;46042;49.444;6.862;2022-10-22T10:02:19;98743.41;;;14.16;100.00
60170;BME280;46042;49.444;6.862;2022-10-22T10:05:04;98739.53;;;14.20;100.00
60170;BME280;46042;49.444;6.862;2022-10-22T10:07:33;98735.09;;;14.32;100.00
60170;BME280;46042;49.444;6.862;2022-10-22T10:10:01;98744.09;;;14.41;100.00
60170;BME280;46042;49.444;6.862;2022-10-22T10:12:53;98744.31;;;14.49;100.00
60170;BME280;46042;49.444;6.862;2022-10-22T10:15:36;98743.59;;;14.47;100.00
60170;BME280;46042;49.444;6.862;2022-10-22T10:21:14;98751.50;;;14.81;100.00
60170;BME280;46042;49.444;6.862;2022-10-22T10:26:28;98746.38;;;15.22;100.00
60170;BME280;46042;49.444;6.862;2022-10-22T10:34:50;98748.59;;;15.17;100.00
60170;BME280;46042;49.444;6.862;2022-10-22T10:37:25;98746.13;;;15.46;100.00
60170;BME280;46042;49.444;6.862;2022-10-22T10:51:30;98735.41;;;18.99;96.22
60170;BME280;46042;49.444;6.862;2022-10-22T10:54:15;62137.28;;;-147.77;100.00
60170;BME280;46042;49.444;6.862;2022-10-22T10:56:47;62137.28;;;-147.77;100.00
60170;BME280;46042;49.444;6.862;2022-10-22T11:12:58;62137.28;;;-147.77;100.00
60170;BME280;46042;49.444;6.862;2022-10-22T11:15:31;62137.28;;;-147.77;100.00
60170;BME280;46042;49.444;6.862;2022-10-22T11:18:05;62137.28;;;-147.77;100.00
60170;BME280;46042;49.444;6.862;2022-10-22T11:20:47;62137.28;;;-147.77;100.00
60170;BME280;46042;49.444;6.862;2022-10-22T11:23:21;62137.28;;;-147.77;100.00
60170;BME280;46042;49.444;6.862;2022-10-22T11:25:50;62137.28;;;-147.77;100.00
60170;BME280;46042;49.444;6.862;2022-10-22T11:30:59;62137.28;;;-147.77;100.00
60170;BME280;46042;49.444;6.862;2022-10-22T11:33:34;62137.28;;;-147.77;100.00
60170;BME280;46042;49.444;6.862;2022-10-22T11:36:05;62137.28;;;-147.77;100.00
60170;BME280;46042;49.444;6.862;2022-10-22T11:38:33;62137.28;;;-147.77;100.00
60170;BME280;46042;49.444;6.862;2022-10-22T11:41:12;62137.28;;;-147.77;100.00
60170;BME280;46042;49.444;6.862;2022-10-22T11:46:46;62137.28;;;-147.77;100.00
60170;BME280;46042;49.444;6.862;2022-10-22T11:49:25;62137.28;;;-147.77;100.00
60170;BME280;46042;49.444;6.862;2022-10-22T11:52:21;62137.28;;;-147.77;100.00
60170;BME280;46042;49.444;6.862;2022-10-22T11:54:52;62137.28;;;-147.77;100.00
60170;BME280;46042;49.444;6.862;2022-10-22T11:57:25;62137.28;;;-147.77;100.00
60170;BME280;46042;49.444;6.862;2022-10-22T11:59:57;98695.34;;;18.81;83.11
60170;BME280;46042;49.444;6.862;2022-10-22T12:05:16;98700.16;;;18.59;88.97
60170;BME280;46042;49.444;6.862;2022-10-22T12:07:55;98703.66;;;18.60;88.89
60170;BME280;46042;49.444;6.862;2022-10-22T12:10:29;98693.66;;;18.44;89.99
60170;BME280;46042;49.444;6.862;2022-10-22T12:13:17;98697.94;;;19.09;87.49
60170;BME280;46042;49.444;6.862;2022-10-22T12:15:48;98694.56;;;18.89;82.85
60170;BME280;46042;49.444;6.862;2022-10-22T12:18:16;98696.97;;;19.37;90.01
60170;BME280;46042;49.444;6.862;2022-10-22T12:20:49;98703.06;;;19.47;81.95
60170;BME280;46042;49.444;6.862;2022-10-22T12:23:16;98691.69;;;19.98;83.35
60170;BME280;46042;49.444;6.862;2022-10-22T12:25:43;98698.75;;;20.15;77.99
60170;BME280;46042;49.444;6.862;2022-10-22T12:28:11;98685.44;;;20.32;80.80
60170;BME280;46042;49.444;6.862;2022-10-22T12:30:38;98698.59;;;20.17;83.52
60170;BME280;46042;49.444;6.862;2022-10-22T12:33:07;98687.63;;;20.45;80.61
60170;BME280;46042;49.444;6.862;2022-10-22T12:35:43;62137.28;;;-147.77;100.00
60170;BME280;46042;49.444;6.862;2022-10-22T12:38:21;62137.28;;;-147.77;100.00
60170;BME280;46042;49.444;6.862;2022-10-22T12:40:50;62137.28;;;-147.77;100.00
60170;BME280;46042;49.444;6.862;2022-10-22T12:43:25;62137.28;;;-147.77;100.00
60170;BME280;46042;49.444;6.862;2022-10-22T12:45:53;62137.28;;;-147.77;100.00
60170;BME280;46042;49.444;6.862;2022-10-22T12:48:37;62137.28;;;-147.77;100.00
60170;BME280;46042;49.444;6.862;2022-10-22T12:51:06;62137.28;;;-147.77;100.00
60170;BME280;46042;49.444;6.862;2022-10-22T12:53:36;62137.28;;;-147.77;100.00
60170;BME280;46042;49.444;6.862;2022-10-22T12:56:06;62137.28;;;-147.77;100.00
60170;BME280;46042;49.444;6.862;2022-10-22T12:58:59;62137.28;;;-147.77;100.00
60170;BME280;46042;49.444;6.862;2022-10-22T13:01:27;62137.28;;;-147.77;100.00
60170;BME280;46042;49.444;6.862;2022-10-22T13:04:34;62137.28;;;-147.77;100.00
60170;BME280;46042;49.444;6.862;2022-10-22T13:07:16;98687.63;;;20.45;80.61
60170;BME280;46042;49.444;6.862;2022-10-22T13:09:57;98670.13;;;19.38;74.00
60170;BME280;46042;49.444;6.862;2022-10-22T13:12:26;98663.13;;;19.37;77.36
60170;BME280;46042;49.444;6.862;2022-10-22T13:14:53;98677.34;;;19.19;78.08
60170;BME280;46042;49.444;6.862;2022-10-22T13:17:37;98671.25;;;19.09;79.81
60170;BME280;46042;49.444;6.862;2022-10-22T13:20:19;98673.06;;;19.09;80.03
60170;BME280;46042;49.444;6.862;2022-10-22T13:25:32;98677.66;;;18.98;81.95
60170;BME280;46042;49.444;6.862;2022-10-22T13:28:01;98675.84;;;18.99;86.48
60170;BME280;46042;49.444;6.862;2022-10-22T13:30:33;98670.34;;;19.00;88.76
60170;BME280;46042;49.444;6.862;2022-10-22T13:33:02;98675.69;;;19.00;83.76
60170;BME280;46042;49.444;6.862;2022-10-22T13:35:31;98670.72;;;18.87;78.44
60170;BME280;46042;49.444;6.862;2022-10-22T13:37:59;98673.84;;;18.83;80.57
60170;BME280;46042;49.444;6.862;2022-10-22T13:40:26;98660.06;;;18.87;84.43
60170;BME280;46042;49.444;6.862;2022-10-22T13:42:53;98662.78;;;18.96;84.16
60170;BME280;46042;49.444;6.862;2022-10-22T13:45:19;98664.03;;;18.83;81.16
60170;BME280;46042;49.444;6.862;2022-10-22T13:47:51;98662.03;;;18.85;81.34
60170;BME280;46042;49.444;6.862;2022-10-22T13:50:19;98650.47;;;18.58;81.61
60170;BME280;46042;49.444;6.862;2022-10-22T13:52:50;98651.38;;;18.67;85.27
60170;BME280;46042;49.444;6.862;2022-10-22T13:55:19;98659.69;;;18.64;83.01
60170;BME280;46042;49.444;6.862;2022-10-22T13:57:46;98657.53;;;18.50;84.32
60170;BME280;46042;49.444;6.862;2022-10-22T14:00:15;98652.75;;;18.53;85.55
60170;BME280;46042;49.444;6.862;2022-10-22T14:02:42;98665.47;;;18.59;85.55
60170;BME280;46042;49.444;6.862;2022-10-22T14:05:10;98663.47;;;18.61;89.23
60170;BME280;46042;49.444;6.862;2022-10-22T14:07:37;98659.69;;;18.64;90.31
60170;BME280;46042;49.444;6.862;2022-10-22T14:10:14;98667.16;;;18.60;92.51
60170;BME280;46042;49.444;6.862;2022-10-22T14:12:41;98669.59;;;18.72;91.32
60170;BME280;46042;49.444;6.862;2022-10-22T14:15:11;98667.75;;;18.72;83.11
60170;BME280;46042;49.444;6.862;2022-10-22T14:17:39;98662.19;;;18.47;84.79
60170;BME280;46042;49.444;6.862;2022-10-22T14:20:14;98647.78;;;18.58;94.41
60170;BME280;46042;49.444;6.862;2022-10-22T14:22:42;98654.28;;;18.38;92.98
60170;BME280;46042;49.444;6.862;2022-10-22T14:25:12;98654.09;;;18.21;93.39
60170;BME280;46042;49.444;6.862;2022-10-22T14:27:39;98653.91;;;18.04;91.66
60170;BME280;46042;49.444;6.862;2022-10-22T14:30:06;98647.31;;;17.99;93.01